createdAt,value
2018-03-22T00:00:48.733Z,9.17
2018-03-22T00:03:14.613Z,9.67
2018-03-22T00:05:43.750Z,15.20
2018-03-22T00:08:09.615Z,12.25
2018-03-22T00:10:40.088Z,17.20
2018-03-22T00:13:05.986Z,14.98
2018-03-22T00:15:31.833Z,8.40
2018-03-22T00:17:57.701Z,10.30
2018-03-22T00:20:26.767Z,10.40
2018-03-22T00:22:52.657Z,11.32
2018-03-22T00:25:22.486Z,8.63
2018-03-22T00:27:48.358Z,12.13
2018-03-22T00:30:16.473Z,10.50
2018-03-22T00:32:42.338Z,9.25
2018-03-22T00:35:08.211Z,11.67
2018-03-22T00:37:34.069Z,11.57
2018-03-22T00:39:59.941Z,12.23
2018-03-22T00:42:27.622Z,11.53
2018-03-22T00:44:53.502Z,11.10
2018-03-22T00:47:27.029Z,11.93
2018-03-22T00:49:52.909Z,10.65
2018-03-22T00:52:18.784Z,13.83
2018-03-22T00:54:44.666Z,13.87
2018-03-22T00:57:12.256Z,11.50
2018-03-22T00:59:38.130Z,12.95
2018-03-22T01:02:07.146Z,12.50
2018-03-22T01:04:33.033Z,13.82
2018-03-22T01:07:02.046Z,24.10
2018-03-22T01:09:27.929Z,12.23
2018-03-22T01:11:53.824Z,15.07
2018-03-22T01:14:19.686Z,14.03
2018-03-22T01:16:45.554Z,14.57
2018-03-22T01:19:13.076Z,14.73
2018-03-22T01:21:38.931Z,24.30
2018-03-22T01:24:08.141Z,12.90
2018-03-22T01:26:34.022Z,21.58
2018-03-22T01:29:02.993Z,11.10
2018-03-22T01:31:28.870Z,8.02
2018-03-22T01:33:58.687Z,9.33
2018-03-22T01:36:24.585Z,11.93
2018-03-22T01:38:53.593Z,10.87
2018-03-22T01:41:19.463Z,15.15
2018-03-22T01:43:46.394Z,10.60
2018-03-22T01:46:12.241Z,17.70
2018-03-22T01:48:38.102Z,18.63
2018-03-22T01:51:03.989Z,12.97
2018-03-22T01:53:29.851Z,14.23
2018-03-22T01:55:59.374Z,17.93
2018-03-22T01:58:25.259Z,15.60
2018-03-22T02:00:54.724Z,13.70
2018-03-22T02:03:20.602Z,12.80
2018-03-22T02:05:48.284Z,10.30
2018-03-22T02:08:14.132Z,19.27
2018-03-22T02:10:43.991Z,13.67
2018-03-22T02:13:09.833Z,9.45
2018-03-22T02:15:37.689Z,10.80
2018-03-22T02:18:03.572Z,12.30
2018-03-22T02:20:32.461Z,7.33
2018-03-22T02:22:58.304Z,10.57
2018-03-22T02:25:24.155Z,11.53
2018-03-22T02:27:50.030Z,9.93
2018-03-22T02:30:15.870Z,17.80
2018-03-22T02:32:43.301Z,8.80
2018-03-22T02:35:09.165Z,9.25
2018-03-22T02:46:10.572Z,11.65
2018-03-22T02:48:39.187Z,11.70
2018-03-22T02:51:05.058Z,11.98
2018-03-22T02:53:34.143Z,11.17
2018-03-22T02:56:00.030Z,9.27
2018-03-22T02:58:29.042Z,8.40
2018-03-22T03:00:54.927Z,7.53
2018-03-22T03:03:24.070Z,11.10
2018-03-22T03:05:49.911Z,10.60
2018-03-22T03:08:17.752Z,12.50
2018-03-22T03:10:43.909Z,7.32
2018-03-22T03:13:12.875Z,7.12
2018-03-22T03:15:38.734Z,11.05
2018-03-22T03:18:04.643Z,14.93
2018-03-22T03:20:30.511Z,12.20
2018-03-22T03:22:56.387Z,9.43
2018-03-22T03:25:24.216Z,12.13
2018-03-22T03:27:50.098Z,11.63
2018-03-22T03:30:19.381Z,11.43
2018-03-22T03:32:45.355Z,8.90
2018-03-22T03:35:14.275Z,7.82
2018-03-22T03:37:40.155Z,10.18
2018-03-22T03:40:09.142Z,10.60
2018-03-22T03:42:34.994Z,10.45
2018-03-22T03:45:04.040Z,8.17
2018-03-22T03:53:15.600Z,11.18
2018-03-22T03:55:41.485Z,9.70
2018-03-22T03:58:07.359Z,9.97
2018-03-22T04:00:33.229Z,11.00
2018-03-22T04:02:59.100Z,7.80
2018-03-22T04:05:24.965Z,20.20
2018-03-22T04:07:50.825Z,12.50
2018-03-22T04:10:16.725Z,6.20
2018-03-22T04:12:42.572Z,7.80
2018-03-22T04:15:08.442Z,8.23
2018-03-22T04:17:34.320Z,8.93
2018-03-22T04:20:00.204Z,7.80
2018-03-22T04:22:26.078Z,9.83
2018-03-22T04:24:51.963Z,6.70
2018-03-22T04:27:17.817Z,6.13
2018-03-22T04:29:43.652Z,11.10
2018-03-22T04:32:09.532Z,6.37
2018-03-22T04:34:35.391Z,5.97
2018-03-22T04:37:01.272Z,9.60
2018-03-22T04:39:27.213Z,13.23
2018-03-22T04:41:53.078Z,5.60
2018-03-22T04:44:18.926Z,10.97
2018-03-22T04:46:44.782Z,6.43
2018-03-22T04:49:10.659Z,13.07
2018-03-22T04:51:36.537Z,9.83
2018-03-22T04:54:02.432Z,8.60
2018-03-22T04:56:28.316Z,9.97
2018-03-22T04:58:54.178Z,8.50
2018-03-22T05:01:20.014Z,16.00
2018-03-22T05:03:45.891Z,7.77
2018-03-22T05:06:11.746Z,6.63
2018-03-22T05:08:37.603Z,6.87
2018-03-22T05:11:03.478Z,14.73
2018-03-22T05:13:30.366Z,15.00
2018-03-22T05:15:56.218Z,6.85
2018-03-22T05:18:22.056Z,10.07
2018-03-22T05:20:47.916Z,9.13
2018-03-22T05:23:13.745Z,10.20
2018-03-22T05:25:39.793Z,7.27
2018-03-22T05:28:05.664Z,11.35
2018-03-22T05:30:31.527Z,9.70
2018-03-22T05:32:57.390Z,9.87
2018-03-22T05:35:23.271Z,7.80
2018-03-22T05:37:49.162Z,8.80
2018-03-22T05:40:15.043Z,9.73
2018-03-22T05:42:41.295Z,9.20
2018-03-22T05:45:07.163Z,25.27
2018-03-22T05:47:33.016Z,9.93
2018-03-22T05:49:58.898Z,9.73
2018-03-22T05:52:25.157Z,5.13
2018-03-22T05:54:51.006Z,14.57
2018-03-22T05:57:19.739Z,10.40
2018-03-22T06:00:00.547Z,10.02
2018-03-22T06:02:26.418Z,6.53
2018-03-22T06:04:52.296Z,10.00
2018-03-22T06:07:18.170Z,8.87
2018-03-22T06:09:44.016Z,6.20
2018-03-22T06:12:09.891Z,8.83
2018-03-22T06:14:35.767Z,9.53
2018-03-22T06:17:01.642Z,12.50
2018-03-22T06:19:27.463Z,7.50
2018-03-22T06:21:53.332Z,8.80
2018-03-22T06:24:19.185Z,6.60
2018-03-22T06:26:45.010Z,11.80
2018-03-22T06:29:10.856Z,12.40
2018-03-22T06:31:36.697Z,11.93
2018-03-22T06:34:06.019Z,9.37
2018-03-22T06:36:31.866Z,14.32
2018-03-22T06:39:00.977Z,12.40
2018-03-22T06:41:26.836Z,16.85
2018-03-22T06:43:54.810Z,17.17
2018-03-22T06:46:20.665Z,12.20
2018-03-22T06:48:50.335Z,13.97
2018-03-22T06:51:16.187Z,13.25
2018-03-22T06:53:44.149Z,9.40
2018-03-22T06:56:10.048Z,20.73
2018-03-22T06:58:35.885Z,22.17
2018-03-22T07:01:01.740Z,28.10
2018-03-22T07:03:27.597Z,42.67
2018-03-22T07:05:55.714Z,28.17
2018-03-22T07:08:22.570Z,31.23
2018-03-22T07:10:52.241Z,25.37
2018-03-22T07:13:18.113Z,19.52
2018-03-22T07:15:45.397Z,17.83
2018-03-22T07:18:11.280Z,17.85
2018-03-22T07:20:40.349Z,48.10
2018-03-22T07:23:06.196Z,24.85
2018-03-22T07:25:35.190Z,22.57
2018-03-22T07:28:01.051Z,51.45
2018-03-22T07:30:30.224Z,26.00
2018-03-22T07:32:56.124Z,11.02
2018-03-22T07:35:21.997Z,18.20
2018-03-22T07:37:48.127Z,17.30
2018-03-22T07:40:14.189Z,17.37
2018-03-22T07:42:40.936Z,13.93
2018-03-22T07:45:09.048Z,13.52
2018-03-22T07:47:35.753Z,31.60
2018-03-22T07:50:01.618Z,16.55
2018-03-22T07:52:30.481Z,27.63
2018-03-22T07:54:56.356Z,15.98
2018-03-22T07:57:24.972Z,12.90
2018-03-22T07:59:50.897Z,11.02
2018-03-22T08:04:47.722Z,14.63
2018-03-22T08:07:14.984Z,10.33
2018-03-22T08:09:40.848Z,10.80
2018-03-22T08:12:06.725Z,13.07
2018-03-22T08:14:32.577Z,12.63
2018-03-22T08:16:58.428Z,13.90
2018-03-22T08:19:26.941Z,9.07
2018-03-22T08:21:52.799Z,9.68
2018-03-22T08:24:21.229Z,9.37
2018-03-22T08:26:47.066Z,8.43
2018-03-22T08:29:16.020Z,5.10
2018-03-22T08:31:41.899Z,9.10
2018-03-22T08:34:10.852Z,5.17
2018-03-22T08:36:36.739Z,5.60
2018-03-22T08:39:05.905Z,7.37
2018-03-22T08:41:31.790Z,7.70
2018-03-22T08:44:01.240Z,5.37
2018-03-22T08:46:27.089Z,8.32
2018-03-22T08:48:52.973Z,4.03
2018-03-22T08:51:18.823Z,9.30
2018-03-22T08:53:44.690Z,4.80
2018-03-22T08:56:11.751Z,3.23
2018-03-22T08:58:37.634Z,6.50
2018-03-22T09:01:06.547Z,6.60
2018-03-22T09:03:32.419Z,3.60
2018-03-22T09:06:01.054Z,7.13
2018-03-22T09:08:26.899Z,5.47
2018-03-22T09:10:55.787Z,7.47
2018-03-22T09:13:21.657Z,12.65
2018-03-22T09:15:50.721Z,7.80
2018-03-22T09:18:16.784Z,11.23
2018-03-22T09:20:46.683Z,10.98
2018-03-22T09:23:12.756Z,15.40
2018-03-22T09:25:38.643Z,12.52
2018-03-22T09:28:04.756Z,17.33
2018-03-22T09:30:30.612Z,13.40
2018-03-22T09:32:57.279Z,12.17
2018-03-22T09:35:23.253Z,12.88
2018-03-22T09:37:52.959Z,21.43
2018-03-22T09:40:18.832Z,13.40
2018-03-22T09:42:48.070Z,10.03
2018-03-22T09:45:13.931Z,11.68
2018-03-22T09:47:43.101Z,16.43
2018-03-22T09:50:08.956Z,14.10
2018-03-22T09:52:35.892Z,11.13
2018-03-22T09:55:01.753Z,11.23
2018-03-22T09:57:30.393Z,14.83
2018-03-22T09:59:56.273Z,9.55
2018-03-22T10:02:22.494Z,19.83
2018-03-22T10:04:48.746Z,15.75
2018-03-22T10:07:15.014Z,11.75
2018-03-22T10:09:42.805Z,15.50
2018-03-22T10:12:09.135Z,16.90
2018-03-22T10:14:37.785Z,17.58
2018-03-22T10:17:03.763Z,15.82
2018-03-22T10:19:33.579Z,17.33
2018-03-22T10:21:59.543Z,20.77
2018-03-22T10:24:26.455Z,19.27
2018-03-22T10:26:52.397Z,31.10
2018-03-22T10:29:21.590Z,38.90
2018-03-22T10:31:47.462Z,23.58
2018-03-22T10:34:17.150Z,26.40
2018-03-22T10:36:42.989Z,27.58
2018-03-22T10:39:08.842Z,27.73
2018-03-22T10:41:34.746Z,27.00
2018-03-22T10:44:00.607Z,37.30
2018-03-22T10:46:28.127Z,31.70
2018-03-22T10:48:53.983Z,27.45
2018-03-22T10:51:23.176Z,27.80
2018-03-22T10:53:49.071Z,27.98
2018-03-22T10:56:18.311Z,28.13
2018-03-22T10:58:44.165Z,26.20
2018-03-22T11:01:18.238Z,32.70
2018-03-22T11:03:52.974Z,27.02
2018-03-22T11:06:18.861Z,24.90
2018-03-22T11:08:44.749Z,25.50
2018-03-22T11:11:10.646Z,28.37
2018-03-22T11:13:36.510Z,27.10
2018-03-22T11:16:02.372Z,22.47
2018-03-22T11:18:28.219Z,27.13
2018-03-22T11:20:54.104Z,28.73
2018-03-22T11:23:19.998Z,27.40
2018-03-22T11:25:45.867Z,26.53
2018-03-22T11:28:11.730Z,25.27
2018-03-22T11:30:37.578Z,27.80
2018-03-22T11:33:03.425Z,34.97
2018-03-22T11:35:29.290Z,26.50
2018-03-22T11:37:58.866Z,27.47
2018-03-22T11:40:24.729Z,28.02
2018-03-22T11:42:53.802Z,36.47
2018-03-22T11:45:19.711Z,33.42
2018-03-22T11:47:47.377Z,28.87
2018-03-22T11:50:13.219Z,33.70
2018-03-22T11:52:39.093Z,31.37
2018-03-22T11:55:04.959Z,28.13
2018-03-22T11:57:30.789Z,30.50
2018-03-22T11:59:58.675Z,31.43
2018-03-22T12:02:24.520Z,27.92
2018-03-22T12:04:53.770Z,35.07
2018-03-22T12:07:19.627Z,37.00
2018-03-22T12:09:48.838Z,26.53
2018-03-22T12:12:14.688Z,42.70
2018-03-22T12:14:43.358Z,32.63
2018-03-22T12:17:09.269Z,33.65
2018-03-22T12:19:39.026Z,29.27
2018-03-22T12:22:04.912Z,29.83
2018-03-22T12:24:32.139Z,27.13
2018-03-22T12:26:58.023Z,31.95
2018-03-22T12:29:23.873Z,27.30
2018-03-22T12:31:49.767Z,28.63
2018-03-22T12:34:15.672Z,34.27
2018-03-22T12:36:45.426Z,30.77
2018-03-22T12:39:11.279Z,24.50
2018-03-22T12:41:39.077Z,25.33
2018-03-22T12:44:04.939Z,26.73
2018-03-22T12:46:34.164Z,26.33
2018-03-22T12:49:00.010Z,26.15
2018-03-22T12:51:29.030Z,28.83
2018-03-22T12:53:54.905Z,23.52
2018-03-22T12:56:23.978Z,27.00
2018-03-22T12:58:49.858Z,24.98
2018-03-22T13:01:19.099Z,23.93
2018-03-22T13:03:44.961Z,28.33
2018-03-22T13:06:10.846Z,45.00
2018-03-22T13:08:36.669Z,34.20
2018-03-22T13:11:02.566Z,24.77
2018-03-22T13:13:29.487Z,25.90
2018-03-22T13:15:55.384Z,27.52
2018-03-22T13:18:24.623Z,26.07
2018-03-22T13:20:50.493Z,25.17
2018-03-22T13:23:19.913Z,18.80
2018-03-22T13:25:45.765Z,31.48
2018-03-22T13:28:14.659Z,27.60
2018-03-22T13:30:40.550Z,30.85
2018-03-22T13:33:07.828Z,26.67
2018-03-22T13:35:33.678Z,21.35
2018-03-22T13:38:02.646Z,29.17
2018-03-22T13:40:28.501Z,24.40
2018-03-22T13:42:54.602Z,28.80
2018-03-22T13:45:20.467Z,24.55
2018-03-22T13:47:46.362Z,25.73
2018-03-22T13:50:14.287Z,27.07
2018-03-22T13:52:40.211Z,24.02
2018-03-22T13:55:08.958Z,35.33
2018-03-22T13:57:34.822Z,26.25
2018-03-22T14:00:03.500Z,29.87
2018-03-22T14:02:29.365Z,27.08
2018-03-22T14:04:58.444Z,27.97
2018-03-22T14:07:24.307Z,24.25
2018-03-22T14:09:53.300Z,26.97
2018-03-22T14:12:19.181Z,25.45
2018-03-22T14:14:48.706Z,27.90
2018-03-22T14:17:14.558Z,21.27
2018-03-22T14:19:40.420Z,20.97
2018-03-22T14:22:06.314Z,21.43
2018-03-22T14:24:32.170Z,22.77
2018-03-22T14:27:00.496Z,17.23
2018-03-22T14:29:26.576Z,16.30
2018-03-22T14:31:54.519Z,23.27
2018-03-22T14:34:20.415Z,21.08
2018-03-22T14:36:50.261Z,15.70
2018-03-22T14:39:16.221Z,17.50
2018-03-22T14:41:43.812Z,24.63
2018-03-22T14:44:09.673Z,14.68
2018-03-22T14:46:38.619Z,22.67
2018-03-22T14:49:04.494Z,21.55
2018-03-22T14:51:33.785Z,15.43
2018-03-22T14:53:59.655Z,21.35
2018-03-22T14:56:25.529Z,17.77
2018-03-22T14:58:51.370Z,15.57
2018-03-22T15:01:17.225Z,19.80
2018-03-22T15:03:46.562Z,16.57
2018-03-22T15:06:12.451Z,31.25
2018-03-22T15:08:39.485Z,17.33
2018-03-22T15:11:05.354Z,18.35
2018-03-22T15:13:34.460Z,13.10
2018-03-22T15:16:00.322Z,18.73
2018-03-22T15:18:29.384Z,15.33
2018-03-22T15:20:55.243Z,20.17
2018-03-22T15:23:24.429Z,16.00
2018-03-22T15:25:50.312Z,16.48
2018-03-22T15:28:19.546Z,21.23
2018-03-22T15:30:45.391Z,14.40
2018-03-22T15:33:11.224Z,13.47
2018-03-22T15:35:37.120Z,11.50
2018-03-22T15:38:03.045Z,17.50
2018-03-22T15:40:30.584Z,18.13
2018-03-22T15:42:56.427Z,11.90
2018-03-22T15:45:25.850Z,19.40
2018-03-22T15:47:51.719Z,20.10
2018-03-22T15:50:21.038Z,11.83
2018-03-22T15:52:46.935Z,11.77
2018-03-22T15:55:15.984Z,12.53
2018-03-22T15:57:41.846Z,13.10
2018-03-22T16:00:10.757Z,10.80
2018-03-22T16:02:36.662Z,14.52
2018-03-22T16:05:03.620Z,16.53
2018-03-22T16:07:29.475Z,9.15
2018-03-22T16:09:55.348Z,8.70
2018-03-22T16:12:22.232Z,11.23
2018-03-22T16:14:48.367Z,10.85
2018-03-22T16:17:17.306Z,13.13
2018-03-22T16:19:43.157Z,19.30
2018-03-22T16:22:10.497Z,10.43
2018-03-22T16:24:36.359Z,19.70
2018-03-22T16:27:05.462Z,11.17
2018-03-22T16:29:31.337Z,10.73
2018-03-22T16:31:59.570Z,11.60
2018-03-22T16:34:25.442Z,9.80
2018-03-22T16:36:54.741Z,11.73
2018-03-22T16:39:20.611Z,12.68
2018-03-22T16:41:50.757Z,12.67
2018-03-22T16:44:16.667Z,13.02
2018-03-22T16:46:42.535Z,15.70
2018-03-22T16:49:08.413Z,22.73
2018-03-22T16:51:34.261Z,19.60
2018-03-22T16:54:00.954Z,19.83
2018-03-22T16:56:26.809Z,21.48
2018-03-22T16:58:56.162Z,21.53
2018-03-22T17:01:22.083Z,20.27
2018-03-22T17:03:51.237Z,20.33
2018-03-22T17:06:17.089Z,16.50
2018-03-22T17:08:45.078Z,17.97
2018-03-22T17:11:10.933Z,17.23
2018-03-22T17:13:40.115Z,17.50
2018-03-22T17:16:05.982Z,16.98
2018-03-22T17:18:34.878Z,14.93
2018-03-22T17:21:00.731Z,14.25
2018-03-22T17:23:26.560Z,17.03
2018-03-22T17:25:52.419Z,17.73
2018-03-22T17:28:18.258Z,12.27
2018-03-22T17:30:46.160Z,14.23
2018-03-22T17:33:12.040Z,14.77
2018-03-22T17:38:31.555Z,15.30
2018-03-22T17:40:57.437Z,16.97
2018-03-22T17:43:23.293Z,13.30
2018-03-22T17:45:49.177Z,19.87
2018-03-22T17:48:15.063Z,14.27
2018-03-22T17:50:40.917Z,15.83
2018-03-22T17:53:06.795Z,17.53
2018-03-22T17:55:32.719Z,19.47
2018-03-22T17:57:58.607Z,31.03
2018-03-22T18:00:24.543Z,78.20
2018-03-22T18:02:50.453Z,19.43
2018-03-22T18:05:16.331Z,11.00
2018-03-22T18:07:42.232Z,10.97
2018-03-22T18:10:08.082Z,7.10
2018-03-22T18:12:33.994Z,9.73
2018-03-22T18:14:59.902Z,8.87
2018-03-22T18:17:25.749Z,10.10
2018-03-22T18:19:51.615Z,10.03
2018-03-22T18:22:17.500Z,13.43
2018-03-22T18:24:43.372Z,10.60
2018-03-22T18:27:10.986Z,10.23
2018-03-22T18:29:36.876Z,8.05
2018-03-22T18:32:05.948Z,8.40
2018-03-22T18:34:31.835Z,7.10
2018-03-22T18:36:57.747Z,8.57
2018-03-22T18:39:23.630Z,10.00
2018-03-22T18:41:49.538Z,12.30
2018-03-22T18:44:16.580Z,8.13
2018-03-22T18:46:42.442Z,9.48
2018-03-22T18:49:11.284Z,54.30
2018-03-22T18:51:37.153Z,22.25
2018-03-22T18:54:05.974Z,17.77
2018-03-22T18:56:31.885Z,12.95
2018-03-22T18:59:01.454Z,7.70
2018-03-22T19:01:27.394Z,9.70
2018-03-22T19:03:56.724Z,8.60
2018-03-22T19:06:22.639Z,8.90
2018-03-22T19:08:50.267Z,10.70
2018-03-22T19:11:16.186Z,7.90
2018-03-22T19:13:42.078Z,8.50
2018-03-22T19:16:07.998Z,7.27
2018-03-22T19:18:33.901Z,12.50
2018-03-22T19:21:01.931Z,9.43
2018-03-22T19:23:27.788Z,12.55
2018-03-22T19:25:57.018Z,7.80
2018-03-22T19:28:22.905Z,8.80
2018-03-22T19:30:51.576Z,7.23
2018-03-22T19:33:17.468Z,7.62
2018-03-22T19:35:46.691Z,4.97
2018-03-22T19:38:12.646Z,6.37
2018-03-22T19:40:41.811Z,5.73
2018-03-22T19:43:07.702Z,6.10
2018-03-22T19:45:35.677Z,7.27
2018-03-22T19:48:01.530Z,5.28
2018-03-22T19:50:27.426Z,5.20
2018-03-22T19:52:53.322Z,3.83
2018-03-22T19:55:19.224Z,5.10
2018-03-22T19:57:48.185Z,5.67
2018-03-22T20:00:14.054Z,10.93
2018-03-22T20:02:42.208Z,15.57
2018-03-22T20:05:08.081Z,12.77
2018-03-22T20:07:37.160Z,20.73
2018-03-22T20:10:03.101Z,14.63
2018-03-22T20:12:32.941Z,9.20
2018-03-22T20:14:58.829Z,8.02
2018-03-22T20:17:27.700Z,7.27
2018-03-22T20:19:53.620Z,10.20
2018-03-22T20:22:21.438Z,10.77
2018-03-22T20:24:47.321Z,10.55
2018-03-22T20:27:13.203Z,13.73
2018-03-22T20:29:39.069Z,11.90
2018-03-22T20:32:04.955Z,12.60
2018-03-22T20:34:32.807Z,13.43
2018-03-22T20:36:58.679Z,11.00
2018-03-22T20:39:27.575Z,9.50
2018-03-22T20:41:53.433Z,9.45
2018-03-22T20:44:22.557Z,12.83
2018-03-22T20:46:48.560Z,18.70
2018-03-22T20:49:17.618Z,11.52
2018-03-22T20:51:43.522Z,18.50
2018-03-22T20:54:12.511Z,14.57
2018-03-22T20:56:38.408Z,12.37
2018-03-22T20:59:06.098Z,11.57
2018-03-22T21:01:32.021Z,16.17
2018-03-22T21:03:57.903Z,15.77
2018-03-22T21:06:23.804Z,24.07
2018-03-22T21:08:49.675Z,38.80
2018-03-22T21:11:17.709Z,29.80
2018-03-22T21:13:43.575Z,24.63
2018-03-22T21:16:12.297Z,18.50
2018-03-22T21:18:38.187Z,14.25
2018-03-22T21:21:06.896Z,15.33
2018-03-22T21:23:32.749Z,27.52
2018-03-22T21:28:29.683Z,16.35
2018-03-22T21:30:56.621Z,19.87
2018-03-22T21:33:22.509Z,14.38
2018-03-22T21:35:51.588Z,20.53
2018-03-22T21:38:17.490Z,17.80
2018-03-22T21:40:43.383Z,18.60
2018-03-22T21:43:09.363Z,14.57
2018-03-22T21:45:35.237Z,17.10
2018-03-22T21:48:04.918Z,20.63
2018-03-22T21:50:43.246Z,17.00
2018-03-22T21:53:09.131Z,17.60
2018-03-22T21:55:34.999Z,24.23
2018-03-22T21:58:00.856Z,23.97
2018-03-22T22:00:27.039Z,25.43
2018-03-22T22:02:52.901Z,17.83
2018-03-22T22:05:18.755Z,14.90
2018-03-22T22:07:44.639Z,15.30
2018-03-22T22:10:10.554Z,13.00
2018-03-22T22:12:36.549Z,14.50
2018-03-22T22:15:02.440Z,16.55
2018-03-22T22:17:28.519Z,13.13
2018-03-22T22:19:54.389Z,15.48
2018-03-22T22:22:20.276Z,15.80
2018-03-22T22:24:49.560Z,15.90
2018-03-22T22:27:15.487Z,15.50
2018-03-22T22:29:43.496Z,15.00
2018-03-22T22:32:09.364Z,17.65
2018-03-22T22:34:38.593Z,16.30
2018-03-22T22:37:04.468Z,22.55
2018-03-22T22:39:34.331Z,19.93
2018-03-22T22:42:00.211Z,19.98
2018-03-22T22:44:27.380Z,21.90
2018-03-22T22:46:53.235Z,20.77
2018-03-22T22:49:22.338Z,29.80
2018-03-22T22:51:48.212Z,26.15
2018-03-22T22:54:14.089Z,27.37
2018-03-22T22:56:39.958Z,29.67
2018-03-22T22:59:05.875Z,23.87
2018-03-22T23:01:35.291Z,27.40
2018-03-22T23:04:01.219Z,25.25
2018-03-22T23:06:28.456Z,29.13
2018-03-22T23:08:54.345Z,29.92
2018-03-22T23:11:24.249Z,27.40
2018-03-22T23:13:50.145Z,28.02
2018-03-22T23:16:18.027Z,26.37
2018-03-22T23:18:43.933Z,27.75
2018-03-22T23:21:12.899Z,32.23
2018-03-22T23:23:38.789Z,29.58
2018-03-22T23:26:07.806Z,32.10
2018-03-22T23:28:33.738Z,27.60
2018-03-22T23:30:59.557Z,30.00
2018-03-22T23:33:25.466Z,37.53
2018-03-22T23:35:51.383Z,34.50
2018-03-22T23:38:20.472Z,24.50
2018-03-22T23:40:46.361Z,22.92
2018-03-22T23:43:15.461Z,26.60
2018-03-22T23:45:41.320Z,25.62
2018-03-22T23:48:08.232Z,21.37
2018-03-22T23:50:34.123Z,25.65
2018-03-22T23:53:02.894Z,23.10
2018-03-22T23:55:28.768Z,25.10
2018-03-22T23:58:01.717Z,24.90
